sensor_id;sensor_type;location;lat;lon;timestamp;temperature;humidity
67598;DHT22;62026;39.230;9.122;2023-06-22T00:02:18;26.50;55.20
67598;DHT22;62026;39.230;9.122;2023-06-22T00:04:45;26.60;54.70
67598;DHT22;62026;39.230;9.122;2023-06-22T00:07:11;26.60;54.70
67598;DHT22;62026;39.230;9.122;2023-06-22T00:09:36;26.60;54.80
67598;DHT22;62026;39.230;9.122;2023-06-22T00:12:03;26.60;55.00
67598;DHT22;62026;39.230;9.122;2023-06-22T00:14:29;26.60;55.80
67598;DHT22;62026;39.230;9.122;2023-06-22T00:16:55;26.50;56.20
67598;DHT22;62026;39.230;9.122;2023-06-22T00:19:23;26.50;55.90
67598;DHT22;62026;39.230;9.122;2023-06-22T00:21:50;26.50;55.50
67598;DHT22;62026;39.230;9.122;2023-06-22T00:24:22;26.50;55.60
67598;DHT22;62026;39.230;9.122;2023-06-22T00:26:48;26.50;55.80
67598;DHT22;62026;39.230;9.122;2023-06-22T00:29:15;26.50;55.90
67598;DHT22;62026;39.230;9.122;2023-06-22T00:31:42;26.50;55.90
67598;DHT22;62026;39.230;9.122;2023-06-22T00:34:09;26.50;56.00
67598;DHT22;62026;39.230;9.122;2023-06-22T00:36:35;26.50;55.80
67598;DHT22;62026;39.230;9.122;2023-06-22T00:39:02;26.50;55.70
67598;DHT22;62026;39.230;9.122;2023-06-22T00:41:29;26.50;55.10
67598;DHT22;62026;39.230;9.122;2023-06-22T00:43:56;26.50;54.70
67598;DHT22;62026;39.230;9.122;2023-06-22T00:46:24;26.50;54.80
67598;DHT22;62026;39.230;9.122;2023-06-22T00:48:51;26.50;55.40
67598;DHT22;62026;39.230;9.122;2023-06-22T00:51:19;26.40;56.20
67598;DHT22;62026;39.230;9.122;2023-06-22T00:53:50;26.40;56.70
67598;DHT22;62026;39.230;9.122;2023-06-22T00:56:17;26.40;57.20
67598;DHT22;62026;39.230;9.122;2023-06-22T00:58:46;26.40;57.50
67598;DHT22;62026;39.230;9.122;2023-06-22T01:01:13;26.40;57.60
67598;DHT22;62026;39.230;9.122;2023-06-22T01:03:40;26.30;58.10
67598;DHT22;62026;39.230;9.122;2023-06-22T01:06:10;26.30;58.60
67598;DHT22;62026;39.230;9.122;2023-06-22T01:11:28;26.10;60.10
67598;DHT22;62026;39.230;9.122;2023-06-22T01:14:15;26.10;60.40
67598;DHT22;62026;39.230;9.122;2023-06-22T01:16:48;26.00;60.30
67598;DHT22;62026;39.230;9.122;2023-06-22T01:22:05;26.00;59.80
67598;DHT22;62026;39.230;9.122;2023-06-22T01:28:01;25.90;59.90
67598;DHT22;62026;39.230;9.122;2023-06-22T01:30:42;25.90;60.00
67598;DHT22;62026;39.230;9.122;2023-06-22T01:33:12;25.90;59.80
67598;DHT22;62026;39.230;9.122;2023-06-22T01:35:40;25.90;60.20
67598;DHT22;62026;39.230;9.122;2023-06-22T01:38:08;25.90;60.00
67598;DHT22;62026;39.230;9.122;2023-06-22T01:40:36;25.90;59.90
67598;DHT22;62026;39.230;9.122;2023-06-22T01:43:03;25.90;60.10
67598;DHT22;62026;39.230;9.122;2023-06-22T01:45:30;25.90;60.10
67598;DHT22;62026;39.230;9.122;2023-06-22T01:47:56;25.90;59.90
67598;DHT22;62026;39.230;9.122;2023-06-22T01:50:23;25.90;60.90
67598;DHT22;62026;39.230;9.122;2023-06-22T01:52:50;25.90;61.30
67598;DHT22;62026;39.230;9.122;2023-06-22T01:55:15;25.90;60.70
67598;DHT22;62026;39.230;9.122;2023-06-22T01:57:42;25.90;61.20
67598;DHT22;62026;39.230;9.122;2023-06-22T02:00:13;25.90;61.30
67598;DHT22;62026;39.230;9.122;2023-06-22T02:02:53;25.80;61.50
67598;DHT22;62026;39.230;9.122;2023-06-22T02:05:31;25.80;61.40
67598;DHT22;62026;39.230;9.122;2023-06-22T02:08:22;25.80;61.90
67598;DHT22;62026;39.230;9.122;2023-06-22T02:10:52;25.80;61.80
67598;DHT22;62026;39.230;9.122;2023-06-22T02:13:21;25.80;61.70
67598;DHT22;62026;39.230;9.122;2023-06-22T02:15:47;25.80;61.50
67598;DHT22;62026;39.230;9.122;2023-06-22T02:18:14;25.80;61.40
67598;DHT22;62026;39.230;9.122;2023-06-22T02:20:40;25.80;61.20
67598;DHT22;62026;39.230;9.122;2023-06-22T02:23:07;25.80;61.00
67598;DHT22;62026;39.230;9.122;2023-06-22T02:25:35;25.80;60.80
67598;DHT22;62026;39.230;9.122;2023-06-22T02:28:02;25.80;60.20
67598;DHT22;62026;39.230;9.122;2023-06-22T02:30:28;25.90;59.70
67598;DHT22;62026;39.230;9.122;2023-06-22T02:32:54;25.90;59.50
67598;DHT22;62026;39.230;9.122;2023-06-22T02:35:28;26.00;58.40
67598;DHT22;62026;39.230;9.122;2023-06-22T02:38:02;25.90;58.00
67598;DHT22;62026;39.230;9.122;2023-06-22T02:40:29;25.90;57.20
67598;DHT22;62026;39.230;9.122;2023-06-22T02:42:56;25.90;56.30
67598;DHT22;62026;39.230;9.122;2023-06-22T02:45:27;25.90;56.40
67598;DHT22;62026;39.230;9.122;2023-06-22T02:47:53;25.90;55.00
67598;DHT22;62026;39.230;9.122;2023-06-22T02:50:19;25.90;54.40
67598;DHT22;62026;39.230;9.122;2023-06-22T02:52:45;25.90;54.70
67598;DHT22;62026;39.230;9.122;2023-06-22T02:55:12;25.90;55.40
67598;DHT22;62026;39.230;9.122;2023-06-22T02:57:38;25.90;55.40
67598;DHT22;62026;39.230;9.122;2023-06-22T03:00:10;25.80;55.10
67598;DHT22;62026;39.230;9.122;2023-06-22T03:02:47;25.90;54.90
67598;DHT22;62026;39.230;9.122;2023-06-22T03:05:15;25.90;54.90
67598;DHT22;62026;39.230;9.122;2023-06-22T03:07:44;25.90;54.90
67598;DHT22;62026;39.230;9.122;2023-06-22T03:10:12;25.80;55.10
67598;DHT22;62026;39.230;9.122;2023-06-22T03:12:40;25.80;54.90
67598;DHT22;62026;39.230;9.122;2023-06-22T03:15:08;25.80;54.70
67598;DHT22;62026;39.230;9.122;2023-06-22T03:17:36;25.80;54.40
67598;DHT22;62026;39.230;9.122;2023-06-22T03:20:05;25.80;53.70
67598;DHT22;62026;39.230;9.122;2023-06-22T03:22:41;25.80;54.10
67598;DHT22;62026;39.230;9.122;2023-06-22T03:25:09;25.80;53.90
67598;DHT22;62026;39.230;9.122;2023-06-22T03:27:40;25.80;53.90
67598;DHT22;62026;39.230;9.122;2023-06-22T03:30:09;25.80;53.70
67598;DHT22;62026;39.230;9.122;2023-06-22T03:32:36;25.80;53.50
67598;DHT22;62026;39.230;9.122;2023-06-22T03:35:04;25.90;53.70
67598;DHT22;62026;39.230;9.122;2023-06-22T03:37:32;25.90;53.90
67598;DHT22;62026;39.230;9.122;2023-06-22T03:39:59;25.90;54.10
67598;DHT22;62026;39.230;9.122;2023-06-22T03:42:28;25.80;54.40
67598;DHT22;62026;39.230;9.122;2023-06-22T03:44:54;25.80;54.80
67598;DHT22;62026;39.230;9.122;2023-06-22T03:47:20;25.90;55.40
67598;DHT22;62026;39.230;9.122;2023-06-22T03:49:46;25.90;55.70
67598;DHT22;62026;39.230;9.122;2023-06-22T03:52:12;25.90;55.60
67598;DHT22;62026;39.230;9.122;2023-06-22T03:54:38;25.90;55.70
67598;DHT22;62026;39.230;9.122;2023-06-22T03:57:04;25.90;56.10
67598;DHT22;62026;39.230;9.122;2023-06-22T03:59:31;25.90;56.30
67598;DHT22;62026;39.230;9.122;2023-06-22T04:01:58;25.90;56.40
67598;DHT22;62026;39.230;9.122;2023-06-22T04:04:24;25.90;56.20
67598;DHT22;62026;39.230;9.122;2023-06-22T04:06:49;25.90;56.60
67598;DHT22;62026;39.230;9.122;2023-06-22T04:09:15;25.90;56.80
67598;DHT22;62026;39.230;9.122;2023-06-22T04:11:41;25.90;57.10
67598;DHT22;62026;39.230;9.122;2023-06-22T04:14:07;25.90;57.00
67598;DHT22;62026;39.230;9.122;2023-06-22T04:16:33;25.90;57.10
67598;DHT22;62026;39.230;9.122;2023-06-22T04:18:59;25.90;57.10
67598;DHT22;62026;39.230;9.122;2023-06-22T04:21:25;25.90;56.80
67598;DHT22;62026;39.230;9.122;2023-06-22T04:23:51;25.90;56.60
67598;DHT22;62026;39.230;9.122;2023-06-22T04:26:17;26.00;56.10
67598;DHT22;62026;39.230;9.122;2023-06-22T04:28:47;26.00;55.60
67598;DHT22;62026;39.230;9.122;2023-06-22T04:31:17;26.00;55.60
67598;DHT22;62026;39.230;9.122;2023-06-22T04:33:45;26.00;55.40
67598;DHT22;62026;39.230;9.122;2023-06-22T04:36:11;26.10;55.20
67598;DHT22;62026;39.230;9.122;2023-06-22T04:38:40;26.10;55.10
67598;DHT22;62026;39.230;9.122;2023-06-22T04:41:07;26.10;54.90
67598;DHT22;62026;39.230;9.122;2023-06-22T04:43:49;26.10;54.50
67598;DHT22;62026;39.230;9.122;2023-06-22T04:46:19;26.20;53.80
67598;DHT22;62026;39.230;9.122;2023-06-22T04:48:45;26.20;53.40
67598;DHT22;62026;39.230;9.122;2023-06-22T04:51:11;26.20;53.00
67598;DHT22;62026;39.230;9.122;2023-06-22T04:53:37;26.30;53.00
67598;DHT22;62026;39.230;9.122;2023-06-22T04:56:05;26.30;52.90
67598;DHT22;62026;39.230;9.122;2023-06-22T04:58:31;26.40;52.70
67598;DHT22;62026;39.230;9.122;2023-06-22T05:00:58;26.40;52.20
67598;DHT22;62026;39.230;9.122;2023-06-22T05:03:27;26.50;51.70
67598;DHT22;62026;39.230;9.122;2023-06-22T05:05:53;26.60;51.10
67598;DHT22;62026;39.230;9.122;2023-06-22T05:08:19;26.70;50.80
67598;DHT22;62026;39.230;9.122;2023-06-22T05:10:45;26.70;51.10
67598;DHT22;62026;39.230;9.122;2023-06-22T05:13:11;26.80;51.30
67598;DHT22;62026;39.230;9.122;2023-06-22T05:15:37;26.80;51.30
67598;DHT22;62026;39.230;9.122;2023-06-22T05:18:06;26.80;51.10
67598;DHT22;62026;39.230;9.122;2023-06-22T05:20:32;26.90;50.90
67598;DHT22;62026;39.230;9.122;2023-06-22T05:23:01;26.90;50.70
67598;DHT22;62026;39.230;9.122;2023-06-22T05:25:28;27.00;50.00
67598;DHT22;62026;39.230;9.122;2023-06-22T05:27:55;27.10;49.90
67598;DHT22;62026;39.230;9.122;2023-06-22T05:30:21;27.10;49.50
67598;DHT22;62026;39.230;9.122;2023-06-22T05:32:47;27.20;49.50
67598;DHT22;62026;39.230;9.122;2023-06-22T05:35:13;27.20;49.70
67598;DHT22;62026;39.230;9.122;2023-06-22T05:37:39;27.30;49.70
67598;DHT22;62026;39.230;9.122;2023-06-22T05:40:05;27.40;49.30
67598;DHT22;62026;39.230;9.122;2023-06-22T05:42:32;27.40;49.30
67598;DHT22;62026;39.230;9.122;2023-06-22T05:44:58;27.50;49.00
67598;DHT22;62026;39.230;9.122;2023-06-22T05:47:24;27.60;48.60
67598;DHT22;62026;39.230;9.122;2023-06-22T05:49:50;27.70;48.00
67598;DHT22;62026;39.230;9.122;2023-06-22T05:52:16;27.90;47.40
67598;DHT22;62026;39.230;9.122;2023-06-22T05:54:43;27.90;47.00
67598;DHT22;62026;39.230;9.122;2023-06-22T05:57:09;28.00;46.90
67598;DHT22;62026;39.230;9.122;2023-06-22T05:59:35;28.10;46.90
67598;DHT22;62026;39.230;9.122;2023-06-22T06:02:01;28.20;46.70
67598;DHT22;62026;39.230;9.122;2023-06-22T06:04:27;28.20;46.50
67598;DHT22;62026;39.230;9.122;2023-06-22T06:06:53;28.30;46.60
67598;DHT22;62026;39.230;9.122;2023-06-22T06:09:19;28.30;46.50
67598;DHT22;62026;39.230;9.122;2023-06-22T06:11:45;28.40;46.70
67598;DHT22;62026;39.230;9.122;2023-06-22T06:14:11;28.50;46.50
67598;DHT22;62026;39.230;9.122;2023-06-22T06:16:37;28.60;46.50
67598;DHT22;62026;39.230;9.122;2023-06-22T06:19:03;28.60;46.50
67598;DHT22;62026;39.230;9.122;2023-06-22T06:21:29;28.60;46.50
67598;DHT22;62026;39.230;9.122;2023-06-22T06:23:55;28.60;46.60
67598;DHT22;62026;39.230;9.122;2023-06-22T06:26:21;28.50;47.10
67598;DHT22;62026;39.230;9.122;2023-06-22T06:28:56;28.60;47.20
67598;DHT22;62026;39.230;9.122;2023-06-22T06:31:23;28.60;47.00
67598;DHT22;62026;39.230;9.122;2023-06-22T06:33:49;28.60;47.50
67598;DHT22;62026;39.230;9.122;2023-06-22T06:36:15;28.60;47.30
67598;DHT22;62026;39.230;9.122;2023-06-22T06:38:42;28.60;47.10
67598;DHT22;62026;39.230;9.122;2023-06-22T06:41:08;28.60;46.90
67598;DHT22;62026;39.230;9.122;2023-06-22T06:43:33;28.70;46.70
67598;DHT22;62026;39.230;9.122;2023-06-22T06:45:59;28.70;46.80
67598;DHT22;62026;39.230;9.122;2023-06-22T06:48:26;28.70;47.20
67598;DHT22;62026;39.230;9.122;2023-06-22T06:50:52;28.70;47.50
67598;DHT22;62026;39.230;9.122;2023-06-22T06:53:18;28.70;47.50
67598;DHT22;62026;39.230;9.122;2023-06-22T06:55:43;28.60;47.90
67598;DHT22;62026;39.230;9.122;2023-06-22T06:58:11;28.70;47.60
67598;DHT22;62026;39.230;9.122;2023-06-22T07:00:39;28.80;47.90
67598;DHT22;62026;39.230;9.122;2023-06-22T07:03:05;28.80;47.20
67598;DHT22;62026;39.230;9.122;2023-06-22T07:05:32;28.90;46.90
67598;DHT22;62026;39.230;9.122;2023-06-22T07:07:58;28.90;46.70
67598;DHT22;62026;39.230;9.122;2023-06-22T07:10:25;28.90;46.30
67598;DHT22;62026;39.230;9.122;2023-06-22T07:12:51;29.00;46.40
67598;DHT22;62026;39.230;9.122;2023-06-22T07:15:17;29.10;45.60
67598;DHT22;62026;39.230;9.122;2023-06-22T07:17:43;29.20;45.40
67598;DHT22;62026;39.230;9.122;2023-06-22T07:20:09;29.20;45.20
67598;DHT22;62026;39.230;9.122;2023-06-22T07:22:44;29.20;45.10
67598;DHT22;62026;39.230;9.122;2023-06-22T07:25:10;29.30;45.10
67598;DHT22;62026;39.230;9.122;2023-06-22T07:27:44;29.30;44.80
67598;DHT22;62026;39.230;9.122;2023-06-22T07:30:12;29.30;44.80
67598;DHT22;62026;39.230;9.122;2023-06-22T07:32:38;29.30;44.40
67598;DHT22;62026;39.230;9.122;2023-06-22T07:35:05;29.30;44.60
67598;DHT22;62026;39.230;9.122;2023-06-22T07:37:32;29.40;44.40
67598;DHT22;62026;39.230;9.122;2023-06-22T07:39:59;29.50;44.30
67598;DHT22;62026;39.230;9.122;2023-06-22T07:42:26;29.60;43.80
67598;DHT22;62026;39.230;9.122;2023-06-22T07:44:53;29.70;43.80
67598;DHT22;62026;39.230;9.122;2023-06-22T07:47:20;29.70;43.80
67598;DHT22;62026;39.230;9.122;2023-06-22T07:49:50;29.80;43.50
67598;DHT22;62026;39.230;9.122;2023-06-22T07:52:17;29.70;43.40
67598;DHT22;62026;39.230;9.122;2023-06-22T07:54:43;29.70;43.40
67598;DHT22;62026;39.230;9.122;2023-06-22T07:57:09;29.80;43.60
67598;DHT22;62026;39.230;9.122;2023-06-22T07:59:36;29.80;43.40
67598;DHT22;62026;39.230;9.122;2023-06-22T08:02:02;29.80;43.30
67598;DHT22;62026;39.230;9.122;2023-06-22T08:04:28;29.80;43.50
67598;DHT22;62026;39.230;9.122;2023-06-22T08:06:56;29.80;43.50
67598;DHT22;62026;39.230;9.122;2023-06-22T08:09:22;29.90;43.70
67598;DHT22;62026;39.230;9.122;2023-06-22T08:11:48;29.90;43.50
67598;DHT22;62026;39.230;9.122;2023-06-22T08:14:14;30.00;43.10
67598;DHT22;62026;39.230;9.122;2023-06-22T08:16:41;30.10;43.10
67598;DHT22;62026;39.230;9.122;2023-06-22T08:19:07;30.00;43.10
67598;DHT22;62026;39.230;9.122;2023-06-22T08:21:33;30.00;43.00
67598;DHT22;62026;39.230;9.122;2023-06-22T08:23:59;30.00;43.00
67598;DHT22;62026;39.230;9.122;2023-06-22T08:26:25;30.10;42.60
67598;DHT22;62026;39.230;9.122;2023-06-22T08:28:51;30.20;41.70
67598;DHT22;62026;39.230;9.122;2023-06-22T08:31:18;30.30;42.20
67598;DHT22;62026;39.230;9.122;2023-06-22T08:33:44;30.30;41.90
67598;DHT22;62026;39.230;9.122;2023-06-22T08:36:11;30.30;41.90
67598;DHT22;62026;39.230;9.122;2023-06-22T08:38:38;30.30;42.20
67598;DHT22;62026;39.230;9.122;2023-06-22T08:41:05;30.40;42.00
67598;DHT22;62026;39.230;9.122;2023-06-22T08:43:31;30.40;41.80
67598;DHT22;62026;39.230;9.122;2023-06-22T08:45:57;30.30;41.60
67598;DHT22;62026;39.230;9.122;2023-06-22T08:48:22;30.40;42.10
67598;DHT22;62026;39.230;9.122;2023-06-22T08:50:48;30.50;41.80
67598;DHT22;62026;39.230;9.122;2023-06-22T08:53:14;30.50;41.80
67598;DHT22;62026;39.230;9.122;2023-06-22T08:55:40;30.50;41.70
67598;DHT22;62026;39.230;9.122;2023-06-22T08:58:06;30.50;41.90
67598;DHT22;62026;39.230;9.122;2023-06-22T09:00:32;30.50;41.80
67598;DHT22;62026;39.230;9.122;2023-06-22T09:03:00;30.40;41.90
67598;DHT22;62026;39.230;9.122;2023-06-22T09:05:26;30.50;42.20
67598;DHT22;62026;39.230;9.122;2023-06-22T09:07:52;30.70;42.30
67598;DHT22;62026;39.230;9.122;2023-06-22T09:10:20;30.80;42.20
67598;DHT22;62026;39.230;9.122;2023-06-22T09:12:46;30.80;42.50
67598;DHT22;62026;39.230;9.122;2023-06-22T09:15:12;30.70;42.80
67598;DHT22;62026;39.230;9.122;2023-06-22T09:17:40;30.60;43.20
67598;DHT22;62026;39.230;9.122;2023-06-22T09:20:07;30.50;44.20
67598;DHT22;62026;39.230;9.122;2023-06-22T09:22:36;30.30;44.70
67598;DHT22;62026;39.230;9.122;2023-06-22T09:25:02;30.30;45.40
67598;DHT22;62026;39.230;9.122;2023-06-22T09:27:29;30.30;45.60
67598;DHT22;62026;39.230;9.122;2023-06-22T09:29:55;30.20;45.40
67598;DHT22;62026;39.230;9.122;2023-06-22T09:34:56;30.10;45.90
67598;DHT22;62026;39.230;9.122;2023-06-22T09:37:23;30.10;46.00
67598;DHT22;62026;39.230;9.122;2023-06-22T09:39:49;30.00;46.20
67598;DHT22;62026;39.230;9.122;2023-06-22T09:42:15;30.00;46.50
67598;DHT22;62026;39.230;9.122;2023-06-22T09:44:41;30.00;46.90
67598;DHT22;62026;39.230;9.122;2023-06-22T09:47:08;30.00;46.90
67598;DHT22;62026;39.230;9.122;2023-06-22T09:49:34;30.00;47.10
67598;DHT22;62026;39.230;9.122;2023-06-22T09:52:00;30.00;46.80
67598;DHT22;62026;39.230;9.122;2023-06-22T09:54:25;29.90;47.10
67598;DHT22;62026;39.230;9.122;2023-06-22T09:56:51;29.90;47.40
67598;DHT22;62026;39.230;9.122;2023-06-22T09:59:17;29.90;47.60
67598;DHT22;62026;39.230;9.122;2023-06-22T10:01:44;29.90;47.90
67598;DHT22;62026;39.230;9.122;2023-06-22T10:04:10;30.00;48.00
67598;DHT22;62026;39.230;9.122;2023-06-22T10:06:36;30.00;47.90
67598;DHT22;62026;39.230;9.122;2023-06-22T10:09:02;30.10;48.10
67598;DHT22;62026;39.230;9.122;2023-06-22T10:11:28;30.20;48.10
67598;DHT22;62026;39.230;9.122;2023-06-22T10:13:56;30.20;48.10
67598;DHT22;62026;39.230;9.122;2023-06-22T10:16:29;30.10;48.30
67598;DHT22;62026;39.230;9.122;2023-06-22T10:18:56;30.20;48.30
67598;DHT22;62026;39.230;9.122;2023-06-22T10:21:22;30.20;48.30
67598;DHT22;62026;39.230;9.122;2023-06-22T10:23:48;30.10;48.70
67598;DHT22;62026;39.230;9.122;2023-06-22T10:26:14;30.20;49.30
67598;DHT22;62026;39.230;9.122;2023-06-22T10:28:40;30.20;49.40
67598;DHT22;62026;39.230;9.122;2023-06-22T10:31:06;30.00;49.60
67598;DHT22;62026;39.230;9.122;2023-06-22T10:33:32;29.90;50.50
67598;DHT22;62026;39.230;9.122;2023-06-22T10:35:59;29.70;50.80
67598;DHT22;62026;39.230;9.122;2023-06-22T10:38:25;29.80;50.60
67598;DHT22;62026;39.230;9.122;2023-06-22T10:40:51;29.80;50.40
67598;DHT22;62026;39.230;9.122;2023-06-22T10:43:17;29.90;51.00
67598;DHT22;62026;39.230;9.122;2023-06-22T10:45:43;29.80;50.90
67598;DHT22;62026;39.230;9.122;2023-06-22T10:48:09;29.80;50.90
67598;DHT22;62026;39.230;9.122;2023-06-22T10:50:35;29.80;50.80
67598;DHT22;62026;39.230;9.122;2023-06-22T10:53:01;29.80;51.10
67598;DHT22;62026;39.230;9.122;2023-06-22T10:55:27;29.90;51.40
67598;DHT22;62026;39.230;9.122;2023-06-22T10:57:53;29.80;51.70
67598;DHT22;62026;39.230;9.122;2023-06-22T11:00:19;29.80;51.90
67598;DHT22;62026;39.230;9.122;2023-06-22T11:02:47;30.00;51.50
67598;DHT22;62026;39.230;9.122;2023-06-22T11:05:13;30.10;51.30
67598;DHT22;62026;39.230;9.122;2023-06-22T11:07:42;30.20;51.50
67598;DHT22;62026;39.230;9.122;2023-06-22T11:10:10;30.10;51.10
67598;DHT22;62026;39.230;9.122;2023-06-22T11:12:37;30.00;51.70
67598;DHT22;62026;39.230;9.122;2023-06-22T11:15:04;29.90;51.80
67598;DHT22;62026;39.230;9.122;2023-06-22T11:17:30;30.10;51.60
67598;DHT22;62026;39.230;9.122;2023-06-22T11:19:56;30.00;51.90
67598;DHT22;62026;39.230;9.122;2023-06-22T11:22:22;29.90;52.00
67598;DHT22;62026;39.230;9.122;2023-06-22T11:24:48;29.90;51.90
67598;DHT22;62026;39.230;9.122;2023-06-22T11:27:14;29.80;52.60
67598;DHT22;62026;39.230;9.122;2023-06-22T11:29:41;29.70;52.20
67598;DHT22;62026;39.230;9.122;2023-06-22T11:32:07;29.80;52.60
67598;DHT22;62026;39.230;9.122;2023-06-22T11:34:33;29.80;51.60
67598;DHT22;62026;39.230;9.122;2023-06-22T11:36:59;29.80;53.20
67598;DHT22;62026;39.230;9.122;2023-06-22T11:39:25;30.00;52.30
67598;DHT22;62026;39.230;9.122;2023-06-22T11:41:51;30.00;52.10
67598;DHT22;62026;39.230;9.122;2023-06-22T11:44:17;29.80;53.00
67598;DHT22;62026;39.230;9.122;2023-06-22T11:46:43;29.80;52.90
67598;DHT22;62026;39.230;9.122;2023-06-22T11:49:09;29.80;53.10
67598;DHT22;62026;39.230;9.122;2023-06-22T11:51:35;29.70;53.70
67598;DHT22;62026;39.230;9.122;2023-06-22T11:54:02;29.70;53.60
67598;DHT22;62026;39.230;9.122;2023-06-22T11:56:28;29.60;54.20
67598;DHT22;62026;39.230;9.122;2023-06-22T11:58:54;29.60;54.60
67598;DHT22;62026;39.230;9.122;2023-06-22T12:01:21;29.60;54.80
67598;DHT22;62026;39.230;9.122;2023-06-22T12:03:47;29.60;54.80
67598;DHT22;62026;39.230;9.122;2023-06-22T12:06:13;29.60;55.20
67598;DHT22;62026;39.230;9.122;2023-06-22T12:08:40;29.50;55.60
67598;DHT22;62026;39.230;9.122;2023-06-22T12:11:05;29.50;55.30
67598;DHT22;62026;39.230;9.122;2023-06-22T12:13:31;29.60;55.50
67598;DHT22;62026;39.230;9.122;2023-06-22T12:15:57;29.60;55.40
67598;DHT22;62026;39.230;9.122;2023-06-22T12:18:23;29.50;55.30
67598;DHT22;62026;39.230;9.122;2023-06-22T12:20:50;29.60;55.10
67598;DHT22;62026;39.230;9.122;2023-06-22T12:23:16;29.70;55.00
67598;DHT22;62026;39.230;9.122;2023-06-22T12:25:42;29.80;54.80
67598;DHT22;62026;39.230;9.122;2023-06-22T12:28:08;29.70;55.00
67598;DHT22;62026;39.230;9.122;2023-06-22T12:30:34;29.60;54.90
67598;DHT22;62026;39.230;9.122;2023-06-22T12:33:00;29.70;54.00
67598;DHT22;62026;39.230;9.122;2023-06-22T12:35:26;29.60;54.30
67598;DHT22;62026;39.230;9.122;2023-06-22T12:37:52;29.70;54.60
67598;DHT22;62026;39.230;9.122;2023-06-22T12:40:18;29.70;54.50
67598;DHT22;62026;39.230;9.122;2023-06-22T12:42:47;29.60;55.30
67598;DHT22;62026;39.230;9.122;2023-06-22T12:45:13;29.70;55.90
67598;DHT22;62026;39.230;9.122;2023-06-22T12:47:39;29.70;55.80
67598;DHT22;62026;39.230;9.122;2023-06-22T12:50:05;29.70;55.80
67598;DHT22;62026;39.230;9.122;2023-06-22T12:52:32;29.70;55.90
67598;DHT22;62026;39.230;9.122;2023-06-22T12:54:58;29.60;56.00
67598;DHT22;62026;39.230;9.122;2023-06-22T12:57:24;29.90;55.80
67598;DHT22;62026;39.230;9.122;2023-06-22T12:59:51;29.90;54.50
67598;DHT22;62026;39.230;9.122;2023-06-22T13:02:17;29.80;55.10
67598;DHT22;62026;39.230;9.122;2023-06-22T13:04:43;29.80;53.70
67598;DHT22;62026;39.230;9.122;2023-06-22T13:07:09;29.80;53.70
67598;DHT22;62026;39.230;9.122;2023-06-22T13:09:36;30.00;54.50
67598;DHT22;62026;39.230;9.122;2023-06-22T13:12:02;30.00;54.40
67598;DHT22;62026;39.230;9.122;2023-06-22T13:14:29;29.90;54.80
67598;DHT22;62026;39.230;9.122;2023-06-22T13:16:54;29.90;55.60
67598;DHT22;62026;39.230;9.122;2023-06-22T13:19:20;29.90;54.10
67598;DHT22;62026;39.230;9.122;2023-06-22T13:21:47;29.90;56.40
67598;DHT22;62026;39.230;9.122;2023-06-22T13:24:13;29.70;57.40
67598;DHT22;62026;39.230;9.122;2023-06-22T13:26:39;29.70;57.30
67598;DHT22;62026;39.230;9.122;2023-06-22T13:29:05;29.70;56.90
67598;DHT22;62026;39.230;9.122;2023-06-22T13:31:31;29.70;57.20
67598;DHT22;62026;39.230;9.122;2023-06-22T13:33:57;29.60;57.30
67598;DHT22;62026;39.230;9.122;2023-06-22T13:36:23;29.60;55.70
67598;DHT22;62026;39.230;9.122;2023-06-22T13:38:49;29.60;56.20
67598;DHT22;62026;39.230;9.122;2023-06-22T13:41:15;29.60;55.90
67598;DHT22;62026;39.230;9.122;2023-06-22T13:43:41;29.60;56.60
67598;DHT22;62026;39.230;9.122;2023-06-22T13:46:07;29.50;58.20
67598;DHT22;62026;39.230;9.122;2023-06-22T13:48:33;29.50;58.10
67598;DHT22;62026;39.230;9.122;2023-06-22T13:50:59;29.40;58.90
67598;DHT22;62026;39.230;9.122;2023-06-22T13:53:25;29.40;59.40
67598;DHT22;62026;39.230;9.122;2023-06-22T13:55:52;29.50;58.20
67598;DHT22;62026;39.230;9.122;2023-06-22T13:58:18;29.60;58.30
67598;DHT22;62026;39.230;9.122;2023-06-22T14:00:45;29.50;59.50
67598;DHT22;62026;39.230;9.122;2023-06-22T14:03:11;29.50;60.00
67598;DHT22;62026;39.230;9.122;2023-06-22T14:05:37;29.40;60.80
67598;DHT22;62026;39.230;9.122;2023-06-22T14:08:03;29.30;61.40
67598;DHT22;62026;39.230;9.122;2023-06-22T14:10:29;29.20;60.90
67598;DHT22;62026;39.230;9.122;2023-06-22T14:12:55;29.10;61.60
67598;DHT22;62026;39.230;9.122;2023-06-22T14:15:21;29.10;61.80
67598;DHT22;62026;39.230;9.122;2023-06-22T14:17:47;29.10;62.00
67598;DHT22;62026;39.230;9.122;2023-06-22T14:20:13;29.10;62.50
67598;DHT22;62026;39.230;9.122;2023-06-22T14:22:39;29.00;62.60
67598;DHT22;62026;39.230;9.122;2023-06-22T14:25:06;29.00;62.10
67598;DHT22;62026;39.230;9.122;2023-06-22T14:27:32;29.10;62.90
67598;DHT22;62026;39.230;9.122;2023-06-22T14:29:58;29.10;61.90
67598;DHT22;62026;39.230;9.122;2023-06-22T14:32:24;29.00;61.40
67598;DHT22;62026;39.230;9.122;2023-06-22T14:34:50;29.00;62.30
67598;DHT22;62026;39.230;9.122;2023-06-22T14:37:17;29.00;61.00
67598;DHT22;62026;39.230;9.122;2023-06-22T14:39:43;29.00;62.10
67598;DHT22;62026;39.230;9.122;2023-06-22T14:42:09;29.10;61.40
67598;DHT22;62026;39.230;9.122;2023-06-22T14:44:35;29.00;61.50
67598;DHT22;62026;39.230;9.122;2023-06-22T14:47:01;29.00;61.90
67598;DHT22;62026;39.230;9.122;2023-06-22T14:49:27;29.10;61.80
67598;DHT22;62026;39.230;9.122;2023-06-22T14:51:53;29.00;61.90
67598;DHT22;62026;39.230;9.122;2023-06-22T14:54:19;28.90;62.70
67598;DHT22;62026;39.230;9.122;2023-06-22T14:56:45;28.80;63.50
67598;DHT22;62026;39.230;9.122;2023-06-22T14:59:12;28.90;63.40
67598;DHT22;62026;39.230;9.122;2023-06-22T15:01:38;28.90;63.40
67598;DHT22;62026;39.230;9.122;2023-06-22T15:04:04;28.90;63.20
67598;DHT22;62026;39.230;9.122;2023-06-22T15:06:30;29.00;63.00
67598;DHT22;62026;39.230;9.122;2023-06-22T15:08:56;28.90;62.80
67598;DHT22;62026;39.230;9.122;2023-06-22T15:11:22;28.90;62.70
67598;DHT22;62026;39.230;9.122;2023-06-22T15:13:48;28.90;62.40
67598;DHT22;62026;39.230;9.122;2023-06-22T15:16:14;28.90;62.50
67598;DHT22;62026;39.230;9.122;2023-06-22T15:18:40;28.90;61.10
67598;DHT22;62026;39.230;9.122;2023-06-22T15:21:07;28.80;60.90
67598;DHT22;62026;39.230;9.122;2023-06-22T15:23:33;28.90;60.10
67598;DHT22;62026;39.230;9.122;2023-06-22T15:26:02;28.90;59.50
67598;DHT22;62026;39.230;9.122;2023-06-22T15:28:30;29.00;58.10
67598;DHT22;62026;39.230;9.122;2023-06-22T15:30:57;29.00;56.20
67598;DHT22;62026;39.230;9.122;2023-06-22T15:33:25;28.90;57.60
67598;DHT22;62026;39.230;9.122;2023-06-22T15:35:51;28.90;58.30
67598;DHT22;62026;39.230;9.122;2023-06-22T15:38:18;29.00;59.10
67598;DHT22;62026;39.230;9.122;2023-06-22T15:40:44;29.10;58.70